createdAt,value
2023-02-05T00:01:04.350Z,102464.06
2023-02-05T00:02:36.076Z,102459.63
2023-02-05T00:04:07.812Z,102452.56
2023-02-05T00:05:39.522Z,102448.13
2023-02-05T00:07:11.243Z,102456.91
2023-02-05T00:08:43.054Z,102455.97
2023-02-05T00:10:14.929Z,102449.78
2023-02-05T00:11:46.671Z,102456.75
2023-02-05T00:13:18.375Z,102458.47
2023-02-05T00:14:50.204Z,102465.44
2023-02-05T00:16:24.308Z,102454.00
2023-02-05T00:17:56.096Z,102460.97
2023-02-05T00:19:27.822Z,102460.91
2023-02-05T00:20:59.581Z,102462.66
2023-02-05T00:22:31.296Z,102452.97
2023-02-05T00:24:03.086Z,102454.66
2023-02-05T00:25:35.141Z,102456.41
2023-02-05T00:27:07.394Z,102457.25
2023-02-05T00:28:39.159Z,102454.63
2023-02-05T00:30:11.483Z,102460.75
2023-02-05T00:31:43.343Z,102458.06
2023-02-05T00:33:15.346Z,102450.13
2023-02-05T00:34:47.053Z,102453.59
2023-02-05T00:36:20.513Z,102450.06
2023-02-05T00:37:52.219Z,102451.78
2023-02-05T00:39:24.092Z,102443.00
2023-02-05T00:40:56.241Z,102449.09
2023-02-05T00:42:27.988Z,102447.28
2023-02-05T00:43:59.686Z,102442.91
2023-02-05T00:45:35.569Z,102449.03
2023-02-05T00:47:07.723Z,102444.59
2023-02-05T00:48:41.049Z,102444.59
2023-02-05T00:50:13.473Z,102454.22
2023-02-05T00:51:45.839Z,102451.56
2023-02-05T00:53:18.897Z,102449.81
2023-02-05T00:54:50.663Z,102460.31
2023-02-05T00:56:22.472Z,102456.81
2023-02-05T00:57:54.772Z,102463.78
2023-02-05T00:59:26.853Z,102458.53
2023-02-05T01:00:58.602Z,102459.41
2023-02-05T01:02:30.621Z,102463.75
2023-02-05T01:04:03.211Z,102471.63
2023-02-05T01:05:36.431Z,102465.47
2023-02-05T01:07:08.378Z,102460.16
2023-02-05T01:08:43.147Z,102460.13
2023-02-05T01:10:15.166Z,102468.00
2023-02-05T01:11:46.894Z,102477.59
2023-02-05T01:13:19.405Z,102472.28
2023-02-05T01:14:51.634Z,102470.44
2023-02-05T01:16:23.609Z,102480.94
2023-02-05T01:17:55.326Z,102469.47
2023-02-05T01:19:27.113Z,102478.25
2023-02-05T01:20:59.366Z,102464.22
2023-02-05T01:22:31.107Z,102465.06
2023-02-05T01:24:03.725Z,102465.97
2023-02-05T01:25:35.834Z,102454.50
2023-02-05T01:27:07.630Z,102456.19
2023-02-05T01:28:39.554Z,102452.66
2023-02-05T01:30:12.024Z,102459.66
2023-02-05T01:31:43.824Z,102456.97
2023-02-05T01:33:16.159Z,102458.72
2023-02-05T01:34:47.887Z,102458.66
2023-02-05T01:36:19.622Z,102453.34
2023-02-05T01:37:51.699Z,102456.81
2023-02-05T01:39:23.427Z,102450.63
2023-02-05T01:40:55.176Z,102447.09
2023-02-05T01:42:30.181Z,102439.13
2023-02-05T01:44:04.991Z,102439.09
2023-02-05T01:46:00.902Z,102433.75
2023-02-05T01:47:32.709Z,102432.06
2023-02-05T01:49:07.667Z,102430.25
2023-02-05T01:50:48.868Z,102425.81
2023-02-05T01:52:22.351Z,102425.81
2023-02-05T01:53:54.083Z,102428.38
2023-02-05T01:55:27.925Z,102417.81
2023-02-05T01:57:10.057Z,102419.53
2023-02-05T01:59:14.356Z,102412.44
2023-02-05T02:00:47.525Z,102415.06
2023-02-05T02:02:19.366Z,102410.66
2023-02-05T02:03:54.608Z,102413.22
2023-02-05T02:05:26.396Z,102412.34
2023-02-05T02:07:01.811Z,102409.69
2023-02-05T02:08:33.781Z,102404.41
2023-02-05T02:10:06.358Z,102397.34
2023-02-05T02:11:42.960Z,102402.59
2023-02-05T02:13:15.128Z,102397.28
2023-02-05T02:14:51.654Z,102403.41
2023-02-05T02:16:26.058Z,102392.00
2023-02-05T02:18:22.343Z,102386.78
2023-02-05T02:20:07.287Z,102387.66
2023-02-05T02:22:06.589Z,102384.09
2023-02-05T02:23:45.160Z,102385.03
2023-02-05T02:25:44.390Z,102371.78
2023-02-05T02:27:40.055Z,102377.06
2023-02-05T02:29:26.847Z,102372.69
2023-02-05T02:31:25.923Z,102370.00
2023-02-05T02:33:25.376Z,102373.47
2023-02-05T02:35:07.974Z,102369.06
2023-02-05T02:36:52.279Z,102364.69
2023-02-05T02:38:33.468Z,102362.94
2023-02-05T02:40:25.649Z,102356.75
2023-02-05T02:42:11.614Z,102358.44
2023-02-05T02:43:58.673Z,102356.69
2023-02-05T02:45:35.050Z,102354.94
2023-02-05T02:47:17.759Z,102355.75
2023-02-05T02:48:52.923Z,102349.53
2023-02-05T02:50:32.913Z,102347.75
2023-02-05T02:52:08.532Z,102346.00
2023-02-05T02:53:44.748Z,102340.69
2023-02-05T02:55:17.499Z,102342.41
2023-02-05T02:56:52.929Z,102330.13
2023-02-05T02:58:30.230Z,102332.72
2023-02-05T03:00:05.877Z,102335.31
2023-02-05T03:01:44.665Z,102337.03
2023-02-05T03:03:24.690Z,102324.75
2023-02-05T03:05:02.476Z,102324.66
2023-02-05T03:06:35.826Z,102322.06
2023-02-05T03:08:33.588Z,102326.34
2023-02-05T03:10:32.550Z,102324.53
2023-02-05T03:12:04.505Z,102317.59
2023-02-05T03:13:36.335Z,102326.28
2023-02-05T03:15:10.768Z,102327.09
2023-02-05T03:16:42.721Z,102329.69
2023-02-05T03:18:17.272Z,102329.69
2023-02-05T03:19:56.428Z,102326.09
2023-02-05T03:21:34.275Z,102323.47
2023-02-05T03:23:06.079Z,102322.59
2023-02-05T03:24:39.577Z,102320.84
2023-02-05T03:26:42.320Z,102311.13
2023-02-05T03:28:29.027Z,102315.59
2023-02-05T03:30:01.792Z,102315.59
2023-02-05T03:31:49.211Z,102315.53
2023-02-05T03:33:31.616Z,102318.16
2023-02-05T03:35:26.408Z,102319.91
2023-02-05T03:37:09.770Z,102318.22
2023-02-05T03:38:52.220Z,102318.22
2023-02-05T03:40:51.003Z,102319.06
2023-02-05T03:42:46.333Z,102317.28
2023-02-05T03:44:30.202Z,102323.38
2023-02-05T03:46:13.710Z,102329.50
2023-02-05T03:48:05.160Z,102326.81
2023-02-05T03:49:53.517Z,102330.19
2023-02-05T03:51:50.573Z,102331.94
2023-02-05T03:53:41.607Z,102336.34
2023-02-05T03:55:25.205Z,102332.78
2023-02-05T03:57:29.612Z,102322.28
2023-02-05T03:59:04.415Z,102320.47
2023-02-05T04:00:36.424Z,102333.63
2023-02-05T04:02:08.620Z,102328.31
2023-02-05T04:03:45.112Z,102337.03
2023-02-05T04:05:17.393Z,102339.59
2023-02-05T04:06:52.284Z,102337.84
2023-02-05T04:08:24.252Z,102340.41
2023-02-05T04:09:57.949Z,102341.22
2023-02-05T04:11:29.667Z,102338.56
2023-02-05T04:13:01.605Z,102333.25
2023-02-05T04:14:34.134Z,102337.56
2023-02-05T04:16:05.927Z,102330.56
2023-02-05T04:17:38.843Z,102331.44
2023-02-05T04:19:10.788Z,102325.25
2023-02-05T04:20:42.566Z,102324.34
2023-02-05T04:22:14.678Z,102332.25
2023-02-05T04:23:49.597Z,102324.34
2023-02-05T04:25:21.862Z,102324.34
2023-02-05T04:26:56.988Z,102325.22
2023-02-05T04:28:29.475Z,102329.63
2023-02-05T04:30:01.402Z,102330.47
2023-02-05T04:31:35.307Z,102326.06
2023-02-05T04:33:07.208Z,102335.72
2023-02-05T04:34:39.161Z,102335.72
2023-02-05T04:36:14.423Z,102333.94
2023-02-05T04:37:46.167Z,102330.41
2023-02-05T04:39:17.989Z,102330.47
2023-02-05T04:40:51.265Z,102333.94
2023-02-05T04:42:23.022Z,102330.41
2023-02-05T04:43:54.736Z,102322.56
2023-02-05T04:45:31.402Z,102324.28
2023-02-05T04:47:03.583Z,102332.16
2023-02-05T04:48:35.786Z,102335.66
2023-02-05T04:50:08.219Z,102338.28
2023-02-05T04:51:39.933Z,102335.66
2023-02-05T04:53:11.658Z,102339.16
2023-02-05T04:54:43.427Z,102340.91
2023-02-05T04:56:17.547Z,102340.91
2023-02-05T04:57:51.288Z,102348.78
2023-02-05T04:59:24.190Z,102353.16
2023-02-05T05:00:56.193Z,102354.91
2023-02-05T05:02:27.949Z,102349.66
2023-02-05T05:03:59.699Z,102351.47
2023-02-05T05:05:31.800Z,102348.91
2023-02-05T05:07:03.903Z,102347.19
2023-02-05T05:08:35.659Z,102348.13
2023-02-05T05:10:08.232Z,102356.91
2023-02-05T05:11:40.178Z,102354.34
2023-02-05T05:13:11.879Z,102356.16
2023-02-05T05:14:43.608Z,102358.88
2023-02-05T05:16:18.213Z,102353.72
2023-02-05T05:17:49.939Z,102345.94
2023-02-05T05:19:22.133Z,102349.56
2023-02-05T05:20:53.956Z,102350.56
2023-02-05T05:22:26.025Z,102352.41
2023-02-05T05:23:57.722Z,102348.09
2023-02-05T05:25:29.426Z,102351.72
2023-02-05T05:27:01.198Z,102350.94
2023-02-05T05:28:34.905Z,102365.03
2023-02-05T05:30:07.395Z,102366.00
2023-02-05T05:31:39.284Z,102369.63
2023-02-05T05:33:11.797Z,102359.19
2023-02-05T05:34:43.500Z,102361.94
2023-02-05T05:36:16.003Z,102360.25
2023-02-05T05:37:47.698Z,102352.50
2023-02-05T05:39:38.286Z,102352.56
2023-02-05T05:41:42.704Z,102343.00
2023-02-05T05:43:35.490Z,102345.72
2023-02-05T05:45:07.570Z,102348.41
2023-02-05T05:46:39.287Z,102348.50
2023-02-05T05:48:11.028Z,102342.41
2023-02-05T05:49:42.769Z,102338.97
2023-02-05T05:51:14.468Z,102338.09
2023-02-05T05:52:46.173Z,102336.41
2023-02-05T05:54:18.033Z,102348.72
2023-02-05T05:55:49.936Z,102348.78
2023-02-05T05:57:21.980Z,102347.03
2023-02-05T05:58:53.796Z,102350.56
2023-02-05T06:00:25.510Z,102349.72
2023-02-05T06:01:57.215Z,102339.19
2023-02-05T06:03:28.966Z,102341.81
2023-02-05T06:05:02.376Z,102336.56
2023-02-05T06:06:34.791Z,102347.97
2023-02-05T06:08:06.762Z,102350.56
2023-02-05T06:09:38.483Z,102350.53
2023-02-05T06:11:10.513Z,102356.59
2023-02-05T06:12:42.230Z,102353.09
2023-02-05T06:14:14.087Z,102351.31
2023-02-05T06:15:46.025Z,102348.63
2023-02-05T06:17:17.780Z,102359.13
2023-02-05T06:18:49.522Z,102358.22
2023-02-05T06:20:21.507Z,102355.56
2023-02-05T06:21:53.235Z,102356.38
2023-02-05T06:23:25.038Z,102368.59
2023-02-05T06:24:56.805Z,102367.66
2023-02-05T06:26:28.491Z,102360.63
2023-02-05T06:28:00.353Z,102369.31
2023-02-05T06:29:32.392Z,102364.00
2023-02-05T06:31:04.553Z,102378.00
2023-02-05T06:32:36.466Z,102375.31
2023-02-05T06:34:08.192Z,102367.38
2023-02-05T06:35:41.506Z,102363.81
2023-02-05T06:37:13.236Z,102367.31
2023-02-05T06:38:44.930Z,102371.63
2023-02-05T06:40:18.370Z,102369.88
2023-02-05T06:41:50.304Z,102361.94
2023-02-05T06:43:22.623Z,102368.94
2023-02-05T06:44:54.388Z,102373.31
2023-02-05T06:46:26.104Z,102368.94
2023-02-05T06:47:58.401Z,102370.69
2023-02-05T06:49:30.128Z,102369.75
2023-02-05T06:51:02.000Z,102369.75
2023-02-05T06:52:33.848Z,102370.69
2023-02-05T06:54:05.564Z,102368.94
2023-02-05T06:55:38.377Z,102358.44
2023-02-05T06:57:11.038Z,102351.56
2023-02-05T06:58:42.774Z,102349.00
2023-02-05T07:00:15.511Z,102354.31
2023-02-05T07:01:47.583Z,102360.50
2023-02-05T07:03:20.799Z,102357.94
2023-02-05T07:04:52.628Z,102357.19
2023-02-05T07:06:25.490Z,102358.19
2023-02-05T07:07:57.366Z,102356.50
2023-02-05T07:09:29.183Z,102363.66
2023-02-05T07:11:01.433Z,102362.84
2023-02-05T07:12:33.186Z,102356.88
2023-02-05T07:14:04.926Z,102359.56
2023-02-05T07:15:37.682Z,102357.97
2023-02-05T07:17:09.657Z,102359.84
2023-02-05T07:18:41.515Z,102368.78
2023-02-05T07:20:13.315Z,102358.34
2023-02-05T07:21:45.077Z,102367.28
2023-02-05T07:23:16.814Z,102365.63
2023-02-05T07:24:48.593Z,102362.22
2023-02-05T07:26:20.340Z,102356.16
2023-02-05T07:27:52.146Z,102355.44
2023-02-05T07:29:23.921Z,102348.50
2023-02-05T07:30:55.989Z,102344.25
2023-02-05T07:32:27.742Z,102346.09
2023-02-05T07:33:59.456Z,102353.19
2023-02-05T07:35:35.949Z,102350.63
2023-02-05T07:37:07.808Z,102352.47
2023-02-05T07:38:39.920Z,102355.19
2023-02-05T07:40:11.950Z,102360.53
2023-02-05T07:41:43.648Z,102360.63
2023-02-05T07:43:24.930Z,102358.09
2023-02-05T07:44:57.202Z,102351.13
2023-02-05T07:46:29.012Z,102346.81
2023-02-05T07:48:00.774Z,102346.00
2023-02-05T07:49:32.510Z,102350.47
2023-02-05T07:51:04.601Z,102350.56
2023-02-05T07:52:36.403Z,102354.09
2023-02-05T07:54:09.996Z,102354.13
2023-02-05T07:55:41.686Z,102356.84
2023-02-05T07:57:13.351Z,102362.09
2023-02-05T07:58:45.056Z,102358.66
2023-02-05T08:00:16.961Z,102358.69
2023-02-05T08:01:48.626Z,102364.03
2023-02-05T08:03:22.509Z,102367.56
2023-02-05T08:04:54.983Z,102367.59
2023-02-05T08:06:26.985Z,102359.69
2023-02-05T08:07:58.723Z,102355.34
2023-02-05T08:09:30.483Z,102342.19
2023-02-05T08:11:05.712Z,102343.09
2023-02-05T08:12:37.446Z,102339.59
2023-02-05T08:14:09.151Z,102338.75
2023-02-05T08:15:41.558Z,102333.50
2023-02-05T08:17:13.358Z,102329.13
2023-02-05T08:18:49.975Z,102331.78
2023-02-05T08:20:22.412Z,102325.63
2023-02-05T08:21:54.183Z,102330.94
2023-02-05T08:23:26.210Z,102321.28
2023-02-05T08:24:57.915Z,102323.94
2023-02-05T08:26:29.607Z,102323.97
2023-02-05T08:28:01.448Z,102335.38
2023-02-05T08:29:33.225Z,102318.72
2023-02-05T08:31:16.258Z,102321.34
2023-02-05T08:32:49.686Z,102321.38
2023-02-05T08:34:21.456Z,102313.44
2023-02-05T08:35:53.335Z,102315.22
2023-02-05T08:37:25.679Z,102311.72
2023-02-05T08:38:57.390Z,102305.56
2023-02-05T08:40:29.131Z,102300.28
2023-02-05T08:42:00.860Z,102298.53
2023-02-05T08:43:32.574Z,102295.06
2023-02-05T08:45:08.917Z,102288.00
2023-02-05T08:46:49.839Z,102278.34
2023-02-05T08:48:23.149Z,102272.19
2023-02-05T08:49:55.093Z,102271.31
2023-02-05T08:51:26.864Z,102273.09
2023-02-05T08:52:58.601Z,102273.13
2023-02-05T08:54:30.373Z,102278.38
2023-02-05T08:56:03.906Z,102283.69
2023-02-05T08:57:36.597Z,102289.00
2023-02-05T08:59:09.227Z,102291.63
2023-02-05T09:00:40.930Z,102285.47
2023-02-05T09:02:15.331Z,102286.34
2023-02-05T09:03:47.133Z,102286.38
2023-02-05T09:05:18.930Z,102286.34
2023-02-05T09:06:50.643Z,102288.16
2023-02-05T09:08:22.348Z,102288.16
2023-02-05T09:09:54.026Z,102284.63
2023-02-05T09:11:26.877Z,102290.78
2023-02-05T09:12:58.621Z,102289.03
2023-02-05T09:14:36.274Z,102289.91
2023-02-05T09:16:11.086Z,102294.34
2023-02-05T09:17:42.794Z,102297.00
2023-02-05T09:19:14.746Z,102286.41
2023-02-05T09:20:49.047Z,102276.72
2023-02-05T09:22:20.995Z,102274.06
2023-02-05T09:23:53.789Z,102276.69
2023-02-05T09:25:25.635Z,102271.41
2023-02-05T09:26:57.335Z,102280.25
2023-02-05T09:28:29.185Z,102280.25
2023-02-05T09:30:00.946Z,102274.06
2023-02-05T09:31:32.803Z,102276.75
2023-02-05T09:33:05.203Z,102271.44
2023-02-05T09:34:36.902Z,102269.69
2023-02-05T09:36:21.074Z,102273.22
2023-02-05T09:37:52.792Z,102261.75
2023-02-05T09:39:52.620Z,102251.16
2023-02-05T09:41:26.925Z,102248.53
2023-02-05T09:43:17.954Z,102251.16
2023-02-05T09:44:58.592Z,102247.63
2023-02-05T09:46:47.044Z,102260.84
2023-02-05T09:48:24.590Z,102256.44
2023-02-05T09:50:18.949Z,102259.09
2023-02-05T09:51:55.932Z,102245.84
2023-02-05T09:53:33.220Z,102252.00
2023-02-05T09:55:20.628Z,102244.06
2023-02-05T09:56:55.750Z,102242.25
2023-02-05T09:58:33.152Z,102251.03
2023-02-05T10:00:13.541Z,102251.03
2023-02-05T10:01:52.564Z,102245.72
2023-02-05T10:03:32.223Z,102243.94
2023-02-05T10:05:13.373Z,102244.81
2023-02-05T10:07:11.193Z,102225.34
2023-02-05T10:08:51.896Z,102236.78
2023-02-05T10:10:48.734Z,102229.72
2023-02-05T10:12:39.359Z,102229.69
2023-02-05T10:14:29.876Z,102235.81
2023-02-05T10:16:11.206Z,102234.88
2023-02-05T10:18:04.274Z,102232.19
2023-02-05T10:20:01.769Z,102234.81
2023-02-05T10:21:58.975Z,102233.00
2023-02-05T10:23:48.962Z,102228.56
2023-02-05T10:25:56.859Z,102222.34
2023-02-05T10:27:46.895Z,102224.94
2023-02-05T10:29:32.556Z,102221.38
2023-02-05T10:31:27.773Z,102213.41
2023-02-05T10:33:06.688Z,102219.50
2023-02-05T10:34:44.341Z,102215.03
2023-02-05T10:36:22.043Z,102221.16
2023-02-05T10:37:57.657Z,102214.00
2023-02-05T10:39:31.012Z,102211.28
2023-02-05T10:41:25.467Z,102205.97
2023-02-05T10:43:18.109Z,102205.88
2023-02-05T10:44:59.839Z,102206.72
2023-02-05T10:46:35.201Z,102202.19
2023-02-05T10:48:37.936Z,102204.81
2023-02-05T10:50:25.893Z,102201.25
2023-02-05T10:51:57.767Z,102201.19
2023-02-05T10:53:31.146Z,102202.06
2023-02-05T10:55:02.941Z,102201.16
2023-02-05T10:56:34.736Z,102191.44
2023-02-05T10:58:39.005Z,102180.84
2023-02-05T11:00:21.391Z,102183.41
2023-02-05T11:01:56.624Z,102188.63
2023-02-05T11:03:29.322Z,102188.56
2023-02-05T11:05:17.993Z,102180.56
2023-02-05T11:06:53.034Z,102187.56
2023-02-05T11:08:44.055Z,102186.75
2023-02-05T11:10:25.837Z,102188.41
2023-02-05T11:12:04.504Z,102177.75
2023-02-05T11:13:41.960Z,102183.03
2023-02-05T11:15:26.570Z,102183.91
2023-02-05T11:16:59.976Z,102185.50
2023-02-05T11:18:57.641Z,102183.69
2023-02-05T11:20:39.154Z,102173.03
2023-02-05T11:22:24.633Z,102181.03
2023-02-05T11:23:58.016Z,102170.25
2023-02-05T11:25:31.433Z,102177.31
2023-02-05T11:27:15.542Z,102182.59
2023-02-05T11:28:47.869Z,102181.63
2023-02-05T11:32:33.946Z,102177.09
2023-02-05T11:34:08.574Z,102168.19
2023-02-05T11:35:40.349Z,102163.75
2023-02-05T11:37:17.555Z,102164.56
2023-02-05T11:38:54.430Z,102153.91
2023-02-05T11:40:31.072Z,102154.78
2023-02-05T11:42:24.854Z,102144.19
2023-02-05T11:44:00.179Z,102151.16
2023-02-05T11:45:35.334Z,102155.56
2023-02-05T11:47:09.248Z,102150.19
2023-02-05T11:48:47.886Z,102159.03
2023-02-05T11:50:28.195Z,102152.84
2023-02-05T11:52:02.454Z,102156.31
2023-02-05T11:53:35.871Z,102144.00
2023-02-05T11:55:22.837Z,102142.19
2023-02-05T11:57:23.416Z,102141.28
2023-02-05T11:59:22.330Z,102140.41
2023-02-05T12:01:01.201Z,102139.44
2023-02-05T12:02:36.934Z,102127.84
2023-02-05T12:04:11.354Z,102134.13
2023-02-05T12:06:06.216Z,102130.53
2023-02-05T12:08:24.128Z,102125.13
2023-02-05T12:09:59.566Z,102128.56
2023-02-05T12:11:56.493Z,102134.75
2023-02-05T12:13:45.724Z,102130.31
2023-02-05T12:15:37.531Z,102127.56
2023-02-05T12:17:18.808Z,102130.13
2023-02-05T12:19:22.856Z,102136.22
2023-02-05T12:21:25.395Z,102130.97
2023-02-05T12:23:06.367Z,102126.47
2023-02-05T12:24:53.213Z,102132.66
2023-02-05T12:26:37.244Z,102129.88
2023-02-05T12:28:36.933Z,102126.28
2023-02-05T12:30:42.503Z,102121.88
2023-02-05T12:32:38.803Z,102122.00
2023-02-05T12:34:43.338Z,102122.91
2023-02-05T12:36:41.697Z,102128.19
2023-02-05T12:38:48.350Z,102124.63
2023-02-05T12:40:35.253Z,102124.56
2023-02-05T12:42:24.380Z,102125.44
2023-02-05T12:44:23.860Z,102120.19
2023-02-05T12:46:21.620Z,102123.75
2023-02-05T12:48:18.242Z,102118.53
2023-02-05T12:50:05.479Z,102113.16
2023-02-05T12:51:39.899Z,102113.16
2023-02-05T12:53:54.619Z,102107.16
2023-02-05T12:55:57.107Z,102110.75
2023-02-05T12:57:42.017Z,102106.28
2023-02-05T12:59:26.067Z,102115.16
2023-02-05T13:01:03.269Z,102108.94
2023-02-05T13:02:53.018Z,102104.56
2023-02-05T13:04:32.364Z,102105.41
2023-02-05T13:06:08.799Z,102105.34
2023-02-05T13:07:45.540Z,102107.06
2023-02-05T13:09:24.483Z,102103.63
2023-02-05T13:11:11.055Z,102114.22
2023-02-05T13:12:48.679Z,102113.22
2023-02-05T13:14:30.221Z,102115.91
2023-02-05T13:16:10.043Z,102115.84
2023-02-05T13:17:57.976Z,102110.59
2023-02-05T13:19:39.460Z,102105.22
2023-02-05T13:21:35.214Z,102111.47
2023-02-05T13:23:28.066Z,102104.41
2023-02-05T13:25:30.035Z,102102.59
2023-02-05T13:27:45.131Z,102102.66
2023-02-05T13:29:19.741Z,102103.53
2023-02-05T13:30:55.989Z,102097.34
2023-02-05T13:32:31.322Z,102103.56
2023-02-05T13:34:05.933Z,102100.94
2023-02-05T13:35:51.164Z,102102.75
2023-02-05T13:37:42.369Z,102103.75
2023-02-05T13:39:47.433Z,102106.47
2023-02-05T13:41:33.310Z,102105.59
2023-02-05T13:43:22.852Z,102105.59
2023-02-05T13:44:57.908Z,102108.28
2023-02-05T13:46:32.341Z,102109.16
2023-02-05T13:48:34.181Z,102117.19
2023-02-05T13:50:23.161Z,102117.25
2023-02-05T13:52:23.526Z,102120.78
2023-02-05T13:54:01.955Z,102126.09
2023-02-05T13:55:46.003Z,102133.25
2023-02-05T13:57:53.656Z,102128.91
2023-02-05T13:59:37.087Z,102128.06
2023-02-05T14:01:42.214Z,102130.84
2023-02-05T14:03:30.750Z,102135.22
2023-02-05T14:05:03.509Z,102139.63
2023-02-05T14:06:38.072Z,102140.59
2023-02-05T14:08:22.896Z,102133.59
2023-02-05T14:09:59.773Z,102136.25
2023-02-05T14:11:55.839Z,102133.69
2023-02-05T14:13:34.648Z,102133.69
2023-02-05T14:15:25.078Z,102125.75
2023-02-05T14:16:59.044Z,102122.13
2023-02-05T14:18:40.040Z,102112.44
2023-02-05T14:20:33.110Z,102115.13
2023-02-05T14:22:10.505Z,102107.09
2023-02-05T14:23:48.472Z,102099.97
2023-02-05T14:25:36.056Z,102107.13
2023-02-05T14:27:40.215Z,102108.06
2023-02-05T14:29:44.256Z,102097.41
2023-02-05T14:31:52.691Z,102097.41
2023-02-05T14:33:31.837Z,102105.44
2023-02-05T14:35:48.197Z,102109.97
2023-02-05T14:37:40.506Z,102104.63
2023-02-05T14:39:33.088Z,102108.19
2023-02-05T14:41:15.094Z,102118.00
2023-02-05T14:42:46.974Z,102122.41
2023-02-05T14:44:24.120Z,102123.38
2023-02-05T14:45:56.352Z,102130.50
2023-02-05T14:47:33.701Z,102122.56
2023-02-05T14:49:20.182Z,102135.03
2023-02-05T14:51:02.466Z,102137.78
2023-02-05T14:52:47.707Z,102140.50
2023-02-05T14:54:23.920Z,102143.22
2023-02-05T14:55:57.094Z,102139.69
2023-02-05T14:57:40.927Z,102139.75
2023-02-05T14:59:23.052Z,102140.72
2023-02-05T15:01:31.649Z,102147.84
2023-02-05T15:03:06.594Z,102143.44
2023-02-05T15:04:38.272Z,102143.47
2023-02-05T15:06:16.055Z,102138.28
2023-02-05T15:07:50.710Z,102148.06
2023-02-05T15:09:40.422Z,102148.09
2023-02-05T15:11:18.395Z,102160.53
2023-02-05T15:13:09.332Z,102157.06
2023-02-05T15:14:54.740Z,102158.00
2023-02-05T15:16:26.433Z,102145.63
2023-02-05T15:18:23.713Z,102140.38
2023-02-05T15:20:00.367Z,102144.00
2023-02-05T15:21:39.162Z,102151.97
2023-02-05T15:23:16.668Z,102151.13
2023-02-05T15:24:49.320Z,102153.84
2023-02-05T15:26:44.176Z,102157.44
2023-02-05T15:28:27.212Z,102152.19
2023-02-05T15:30:07.082Z,102148.69
2023-02-05T15:31:49.096Z,102139.91
2023-02-05T15:33:36.514Z,102135.53
2023-02-05T15:35:16.597Z,102134.69
2023-02-05T15:37:04.021Z,102131.22
2023-02-05T15:38:46.600Z,102130.38
2023-02-05T15:40:38.579Z,102141.94
2023-02-05T15:42:16.060Z,102140.16
2023-02-05T15:43:59.651Z,102142.88
2023-02-05T15:45:37.092Z,102137.59
2023-02-05T15:47:17.415Z,102141.13
2023-02-05T15:48:49.193Z,102138.53
2023-02-05T15:50:21.098Z,102135.03
2023-02-05T15:51:52.965Z,102138.59
2023-02-05T15:53:36.551Z,102142.19
2023-02-05T15:55:17.460Z,102135.16
2023-02-05T15:56:54.057Z,102139.59
2023-02-05T15:58:26.955Z,102136.97
2023-02-05T16:00:01.413Z,102137.91
2023-02-05T16:01:46.756Z,102133.53
2023-02-05T16:03:31.991Z,102131.81
2023-02-05T16:05:17.612Z,102138.00
2023-02-05T16:06:49.527Z,102143.31
2023-02-05T16:08:23.536Z,102147.78
2023-02-05T16:09:58.486Z,102147.78
2023-02-05T16:11:35.124Z,102161.94
2023-02-05T16:13:16.358Z,102164.63
2023-02-05T16:15:01.848Z,102161.09
2023-02-05T16:16:37.032Z,102158.47
2023-02-05T16:18:19.927Z,102164.66
2023-02-05T16:19:59.996Z,102167.31
2023-02-05T16:21:36.124Z,102174.41
2023-02-05T16:23:24.013Z,102175.28
2023-02-05T16:25:01.488Z,102180.59
2023-02-05T16:26:43.132Z,102182.38
2023-02-05T16:28:23.789Z,102190.31
2023-02-05T16:30:02.101Z,102193.00
2023-02-05T16:31:37.531Z,102199.16
2023-02-05T16:33:26.874Z,102210.63
2023-02-05T16:35:01.331Z,102206.22
2023-02-05T16:36:37.875Z,102211.53
2023-02-05T16:38:17.616Z,102222.09
2023-02-05T16:39:55.498Z,102219.44
2023-02-05T16:41:31.305Z,102222.97
2023-02-05T16:43:39.327Z,102230.91
2023-02-05T16:45:18.947Z,102233.53
2023-02-05T16:47:24.817Z,102233.50
2023-02-05T16:49:01.942Z,102237.06
2023-02-05T16:50:39.342Z,102237.91
2023-02-05T16:52:27.588Z,102236.16
2023-02-05T16:54:01.131Z,102237.88
2023-02-05T16:55:42.309Z,102234.38
2023-02-05T16:57:23.394Z,102244.06
2023-02-05T16:58:58.933Z,102243.16
2023-02-05T17:00:30.680Z,102236.09
2023-02-05T17:02:03.590Z,102249.31
2023-02-05T17:03:38.789Z,102243.16
2023-02-05T17:05:33.698Z,102232.56
2023-02-05T17:07:17.432Z,102236.97
2023-02-05T17:08:55.464Z,102230.78
2023-02-05T17:10:30.967Z,102233.41
2023-02-05T17:12:33.079Z,102243.09
2023-02-05T17:14:31.531Z,102245.72
2023-02-05T17:16:32.093Z,102255.41
2023-02-05T17:18:31.196Z,102255.38
2023-02-05T17:20:19.510Z,102255.38
2023-02-05T17:22:14.076Z,102250.06
2023-02-05T17:23:50.264Z,102255.34
2023-02-05T17:25:22.942Z,102255.34
2023-02-05T17:26:54.873Z,102255.31
2023-02-05T17:28:28.002Z,102263.22
2023-02-05T17:30:00.468Z,102264.09
2023-02-05T17:31:37.536Z,102259.69
2023-02-05T17:33:10.258Z,102250.88
2023-02-05T17:34:41.976Z,102244.72
2023-02-05T17:36:16.641Z,102246.44
2023-02-05T17:37:48.843Z,102250.84
2023-02-05T17:39:20.610Z,102245.56
2023-02-05T17:41:12.474Z,102251.72
2023-02-05T17:42:46.293Z,102249.06
2023-02-05T17:44:18.200Z,102250.81
2023-02-05T17:45:50.257Z,102247.28
2023-02-05T17:47:21.968Z,102245.53
2023-02-05T17:48:53.836Z,102246.41
2023-02-05T17:50:25.644Z,102237.59
2023-02-05T17:51:57.426Z,102244.59
2023-02-05T17:53:29.191Z,102240.19
2023-02-05T17:55:01.299Z,102241.94
2023-02-05T17:56:33.016Z,102239.28
2023-02-05T17:58:04.826Z,102236.63
2023-02-05T17:59:36.550Z,102246.28
2023-02-05T18:01:11.852Z,102245.31
2023-02-05T18:02:43.619Z,102242.66
2023-02-05T18:04:18.652Z,102244.38
2023-02-05T18:05:50.552Z,102252.25
2023-02-05T18:07:36.667Z,102259.22
2023-02-05T18:09:09.422Z,102270.63
2023-02-05T18:10:41.424Z,102263.53
2023-02-05T18:12:13.214Z,102269.63
2023-02-05T18:13:44.892Z,102266.06
2023-02-05T18:15:16.759Z,102270.41
2023-02-05T18:16:48.531Z,102271.25
2023-02-05T18:18:20.587Z,102270.31
2023-02-05T18:19:55.044Z,102272.06
2023-02-05T18:21:26.835Z,102272.06
2023-02-05T18:22:58.701Z,102264.16
2023-02-05T18:24:30.454Z,102260.59
2023-02-05T18:26:05.367Z,102253.56
2023-02-05T18:27:37.174Z,102265.91
2023-02-05T18:29:09.148Z,102265.91
2023-02-05T18:30:40.985Z,102265.06
2023-02-05T18:32:12.782Z,102268.59
2023-02-05T18:33:44.715Z,102268.63
2023-02-05T18:35:16.513Z,102266.91
2023-02-05T18:36:48.192Z,102268.66
2023-02-05T18:38:21.579Z,102269.56
2023-02-05T18:39:53.336Z,102273.97
2023-02-05T18:41:26.435Z,102272.22
2023-02-05T18:42:58.228Z,102274.88
2023-02-05T18:44:29.928Z,102262.59
2023-02-05T18:46:10.415Z,102262.59